sensor_id;sensor_type;location;lat;lon;timestamp;pressure;altitude;pressure_sealevel;temperature;humidity
30730;BME280;17476;48.458;7.928;2022-08-11T00:01:53;100207.91;;;22.30;40.01
30730;BME280;17476;48.458;7.928;2022-08-11T00:04:24;100203.69;;;22.34;40.93
30730;BME280;17476;48.458;7.928;2022-08-11T00:06:52;100204.75;;;22.33;40.32
30730;BME280;17476;48.458;7.928;2022-08-11T00:09:22;100202.09;;;22.33;40.55
30730;BME280;17476;48.458;7.928;2022-08-11T00:11:56;100194.69;;;22.36;40.66
30730;BME280;17476;48.458;7.928;2022-08-11T00:14:30;100202.75;;;22.41;40.33
30730;BME280;17476;48.458;7.928;2022-08-11T00:17:04;100205.53;;;22.46;40.47
30730;BME280;17476;48.458;7.928;2022-08-11T00:19:43;100203.38;;;22.43;40.52
30730;BME280;17476;48.458;7.928;2022-08-11T00:22:10;100212.63;;;22.40;40.50
30730;BME280;17476;48.458;7.928;2022-08-11T00:24:39;100207.41;;;22.33;40.59
30730;BME280;17476;48.458;7.928;2022-08-11T00:27:06;100202.69;;;22.24;40.75
30730;BME280;17476;48.458;7.928;2022-08-11T00:29:33;100201.88;;;22.23;41.04
30730;BME280;17476;48.458;7.928;2022-08-11T00:32:03;100197.59;;;22.22;40.74
30730;BME280;17476;48.458;7.928;2022-08-11T00:34:33;100206.84;;;22.20;40.67
30730;BME280;17476;48.458;7.928;2022-08-11T00:37:10;100203.69;;;21.99;41.00
30730;BME280;17476;48.458;7.928;2022-08-11T00:39:45;100207.53;;;21.92;41.33
30730;BME280;17476;48.458;7.928;2022-08-11T00:45:33;100214.00;;;21.72;41.50
30730;BME280;17476;48.458;7.928;2022-08-11T00:51:10;100210.75;;;21.70;41.84
30730;BME280;17476;48.458;7.928;2022-08-11T00:54:06;100221.38;;;21.59;42.20
30730;BME280;17476;48.458;7.928;2022-08-11T01:11:05;100211.75;;;21.46;42.89
30730;BME280;17476;48.458;7.928;2022-08-11T01:46:03;100211.91;;;21.21;43.68
30730;BME280;17476;48.458;7.928;2022-08-11T01:54:17;100224.25;;;21.15;43.62
30730;BME280;17476;48.458;7.928;2022-08-11T01:56:57;100228.53;;;21.16;43.94
30730;BME280;17476;48.458;7.928;2022-08-11T02:00:11;100225.63;;;21.18;43.56
30730;BME280;17476;48.458;7.928;2022-08-11T02:02:49;100222.97;;;21.18;43.44
30730;BME280;17476;48.458;7.928;2022-08-11T02:12:15;100220.78;;;21.15;43.54
30730;BME280;17476;48.458;7.928;2022-08-11T02:17:36;100223.53;;;21.08;43.70
30730;BME280;17476;48.458;7.928;2022-08-11T02:20:59;100225.59;;;21.06;43.53
30730;BME280;17476;48.458;7.928;2022-08-11T02:23:58;100216.88;;;20.99;44.14
30730;BME280;17476;48.458;7.928;2022-08-11T02:26:47;100213.22;;;21.00;43.93
30730;BME280;17476;48.458;7.928;2022-08-11T02:32:50;100214.72;;;20.78;44.25
30730;BME280;17476;48.458;7.928;2022-08-11T02:36:09;100210.44;;;20.58;45.20
30730;BME280;17476;48.458;7.928;2022-08-11T02:39:06;100206.31;;;20.62;45.12
30730;BME280;17476;48.458;7.928;2022-08-11T02:41:57;100213.63;;;20.67;44.94
30730;BME280;17476;48.458;7.928;2022-08-11T02:45:27;100208.09;;;20.68;44.78
30730;BME280;17476;48.458;7.928;2022-08-11T02:52:06;100211.94;;;20.54;45.48
30730;BME280;17476;48.458;7.928;2022-08-11T02:54:51;100215.63;;;20.53;46.07
30730;BME280;17476;48.458;7.928;2022-08-11T02:57:32;100207.78;;;20.58;45.69
30730;BME280;17476;48.458;7.928;2022-08-11T03:00:07;100219.69;;;20.56;46.18
30730;BME280;17476;48.458;7.928;2022-08-11T03:08:39;100216.72;;;20.45;46.44
30730;BME280;17476;48.458;7.928;2022-08-11T03:14:57;100213.66;;;20.42;47.01
30730;BME280;17476;48.458;7.928;2022-08-11T03:20:55;100211.16;;;20.29;47.19
30730;BME280;17476;48.458;7.928;2022-08-11T03:23:52;100214.84;;;20.28;47.55
30730;BME280;17476;48.458;7.928;2022-08-11T03:27:07;100219.41;;;20.21;47.70
30730;BME280;17476;48.458;7.928;2022-08-11T03:36:00;100213.75;;;19.92;48.34
30730;BME280;17476;48.458;7.928;2022-08-11T03:38:58;100225.72;;;20.01;48.17
30730;BME280;17476;48.458;7.928;2022-08-11T03:41:40;100219.00;;;19.99;48.10
30730;BME280;17476;48.458;7.928;2022-08-11T03:48:02;100221.16;;;19.83;48.80
30730;BME280;17476;48.458;7.928;2022-08-11T04:00:05;100221.66;;;19.74;48.93
30730;BME280;17476;48.458;7.928;2022-08-11T04:18:37;100222.38;;;19.87;48.69
30730;BME280;17476;48.458;7.928;2022-08-11T04:30:16;100229.75;;;19.85;48.85
30730;BME280;17476;48.458;7.928;2022-08-11T04:33:29;100229.88;;;19.90;48.37
30730;BME280;17476;48.458;7.928;2022-08-11T04:55:41;100227.97;;;19.98;48.50
30730;BME280;17476;48.458;7.928;2022-08-11T05:12:01;100244.88;;;20.28;48.60
30730;BME280;17476;48.458;7.928;2022-08-11T05:14:40;100243.41;;;20.32;48.53
30730;BME280;17476;48.458;7.928;2022-08-11T05:18:05;100247.47;;;20.35;48.43
30730;BME280;17476;48.458;7.928;2022-08-11T05:20:55;100243.94;;;20.41;48.41
30730;BME280;17476;48.458;7.928;2022-08-11T05:23:50;100256.41;;;20.40;48.68
30730;BME280;17476;48.458;7.928;2022-08-11T05:26:47;100245.56;;;20.42;48.87
30730;BME280;17476;48.458;7.928;2022-08-11T05:30:05;100247.41;;;20.41;48.95
30730;BME280;17476;48.458;7.928;2022-08-11T05:33:29;100251.63;;;20.49;48.47
30730;BME280;17476;48.458;7.928;2022-08-11T05:36:48;100257.47;;;20.58;48.71
30730;BME280;17476;48.458;7.928;2022-08-11T05:39:30;100255.63;;;20.58;48.52
30730;BME280;17476;48.458;7.928;2022-08-11T05:42:18;100254.72;;;20.64;48.71
30730;BME280;17476;48.458;7.928;2022-08-11T05:45:14;100247.50;;;20.71;48.42
30730;BME280;17476;48.458;7.928;2022-08-11T05:47:59;100245.44;;;20.74;48.21
30730;BME280;17476;48.458;7.928;2022-08-11T05:50:59;100253.91;;;20.82;48.41
30730;BME280;17476;48.458;7.928;2022-08-11T05:54:03;100251.63;;;20.86;48.73
30730;BME280;17476;48.458;7.928;2022-08-11T05:56:54;100252.00;;;20.89;48.20
30730;BME280;17476;48.458;7.928;2022-08-11T05:59:23;100244.16;;;20.94;48.11
30730;BME280;17476;48.458;7.928;2022-08-11T06:01:50;100241.03;;;20.97;48.39
30730;BME280;17476;48.458;7.928;2022-08-11T06:04:22;100242.97;;;21.09;48.72
30730;BME280;17476;48.458;7.928;2022-08-11T06:07:01;100250.75;;;21.22;48.72
30730;BME280;17476;48.458;7.928;2022-08-11T06:12:04;100240.91;;;21.52;48.14
30730;BME280;17476;48.458;7.928;2022-08-11T06:14:32;100229.84;;;21.67;47.58
30730;BME280;17476;48.458;7.928;2022-08-11T06:17:02;100232.28;;;21.80;47.77
30730;BME280;17476;48.458;7.928;2022-08-11T06:19:38;100234.16;;;21.92;46.98
30730;BME280;17476;48.458;7.928;2022-08-11T06:22:09;100225.94;;;22.05;47.23
30730;BME280;17476;48.458;7.928;2022-08-11T06:24:40;100232.25;;;22.22;46.38
30730;BME280;17476;48.458;7.928;2022-08-11T06:27:07;100229.41;;;22.41;46.24
30730;BME280;17476;48.458;7.928;2022-08-11T06:29:36;100226.13;;;22.62;46.17
30730;BME280;17476;48.458;7.928;2022-08-11T06:32:11;100229.47;;;22.69;45.45
30730;BME280;17476;48.458;7.928;2022-08-11T06:40:36;100224.28;;;23.03;45.18
30730;BME280;17476;48.458;7.928;2022-08-11T06:43:22;100227.66;;;23.10;44.86
30730;BME280;17476;48.458;7.928;2022-08-11T06:46:05;100234.31;;;23.24;44.55
30730;BME280;17476;48.458;7.928;2022-08-11T06:48:33;100227.13;;;23.41;44.82
30730;BME280;17476;48.458;7.928;2022-08-11T06:51:03;100222.03;;;23.57;43.59
30730;BME280;17476;48.458;7.928;2022-08-11T06:56:13;100227.09;;;23.87;43.36
30730;BME280;17476;48.458;7.928;2022-08-11T06:58:59;100230.78;;;24.03;43.05
30730;BME280;17476;48.458;7.928;2022-08-11T07:02:16;100223.41;;;24.27;43.13
30730;BME280;17476;48.458;7.928;2022-08-11T07:05:09;100223.44;;;24.48;42.61
30730;BME280;17476;48.458;7.928;2022-08-11T07:14:30;100222.56;;;25.09;41.25
30730;BME280;17476;48.458;7.928;2022-08-11T07:17:21;100228.16;;;25.34;40.99
30730;BME280;17476;48.458;7.928;2022-08-11T07:19:57;100221.66;;;25.57;40.47
30730;BME280;17476;48.458;7.928;2022-08-11T07:22:52;100218.38;;;25.77;40.01
30730;BME280;17476;48.458;7.928;2022-08-11T07:25:41;100219.56;;;25.96;39.93
30730;BME280;17476;48.458;7.928;2022-08-11T07:28:29;100210.19;;;26.41;38.66
30730;BME280;17476;48.458;7.928;2022-08-11T07:38:48;100201.63;;;27.73;36.70
30730;BME280;17476;48.458;7.928;2022-08-11T07:41:18;100207.75;;;28.04;35.43
30730;BME280;17476;48.458;7.928;2022-08-11T07:43:50;100207.97;;;28.33;35.71
30730;BME280;17476;48.458;7.928;2022-08-11T07:46:18;100196.28;;;28.58;34.83
30730;BME280;17476;48.458;7.928;2022-08-11T07:49:06;100192.31;;;29.00;34.46
30730;BME280;17476;48.458;7.928;2022-08-11T07:51:53;100203.31;;;29.43;34.10
30730;BME280;17476;48.458;7.928;2022-08-11T07:54:39;100199.09;;;29.66;32.79
30730;BME280;17476;48.458;7.928;2022-08-11T07:57:08;100192.69;;;29.85;32.63
30730;BME280;17476;48.458;7.928;2022-08-11T07:59:53;100198.56;;;30.22;31.80
30730;BME280;17476;48.458;7.928;2022-08-11T08:02:42;100193.72;;;30.42;31.39
30730;BME280;17476;48.458;7.928;2022-08-11T08:05:26;100181.56;;;30.64;31.39
30730;BME280;17476;48.458;7.928;2022-08-11T08:08:14;100175.78;;;31.08;31.53
30730;BME280;17476;48.458;7.928;2022-08-11T08:10:58;100176.94;;;31.40;30.84
30730;BME280;17476;48.458;7.928;2022-08-11T08:13:44;100181.97;;;31.79;29.86
30730;BME280;17476;48.458;7.928;2022-08-11T08:16:29;100167.03;;;31.82;28.91
30730;BME280;17476;48.458;7.928;2022-08-11T08:19:16;100161.03;;;31.85;28.98
30730;BME280;17476;48.458;7.928;2022-08-11T08:21:44;100167.03;;;31.95;29.13
30730;BME280;17476;48.458;7.928;2022-08-11T08:24:10;100165.75;;;32.20;28.16
30730;BME280;17476;48.458;7.928;2022-08-11T08:26:37;100166.41;;;32.53;27.85
30730;BME280;17476;48.458;7.928;2022-08-11T08:29:22;100166.44;;;32.90;27.65
30730;BME280;17476;48.458;7.928;2022-08-11T08:32:08;100169.34;;;33.16;26.33
30730;BME280;17476;48.458;7.928;2022-08-11T08:34:36;100173.88;;;33.51;26.10
30730;BME280;17476;48.458;7.928;2022-08-11T08:37:08;100163.16;;;33.68;25.44
30730;BME280;17476;48.458;7.928;2022-08-11T08:39:35;100161.97;;;33.92;25.21
30730;BME280;17476;48.458;7.928;2022-08-11T08:42:09;100163.34;;;34.20;25.54
30730;BME280;17476;48.458;7.928;2022-08-11T08:44:41;100154.56;;;34.32;25.24
30730;BME280;17476;48.458;7.928;2022-08-11T08:47:14;100151.13;;;34.49;23.38
30730;BME280;17476;48.458;7.928;2022-08-11T08:49:48;100164.75;;;34.01;22.81
30730;BME280;17476;48.458;7.928;2022-08-11T08:52:21;100155.13;;;34.43;22.95
30730;BME280;17476;48.458;7.928;2022-08-11T08:54:54;100150.34;;;34.57;21.30
30730;BME280;17476;48.458;7.928;2022-08-11T08:57:22;100135.16;;;34.65;21.66
30730;BME280;17476;48.458;7.928;2022-08-11T08:59:51;100137.22;;;35.11;20.71
30730;BME280;17476;48.458;7.928;2022-08-11T09:02:23;100138.31;;;35.19;20.72
30730;BME280;17476;48.458;7.928;2022-08-11T09:04:50;100146.06;;;35.64;21.57
30730;BME280;17476;48.458;7.928;2022-08-11T09:07:19;100146.03;;;35.72;21.07
30730;BME280;17476;48.458;7.928;2022-08-11T09:09:51;100139.47;;;36.03;20.60
30730;BME280;17476;48.458;7.928;2022-08-11T09:12:20;100142.56;;;36.22;20.51
30730;BME280;17476;48.458;7.928;2022-08-11T09:14:51;100139.28;;;36.08;20.42
30730;BME280;17476;48.458;7.928;2022-08-11T09:17:45;100140.22;;;35.44;19.98
30730;BME280;17476;48.458;7.928;2022-08-11T09:20:23;100147.44;;;35.70;20.31
30730;BME280;17476;48.458;7.928;2022-08-11T09:22:54;100138.91;;;35.97;19.67
30730;BME280;17476;48.458;7.928;2022-08-11T09:25:40;100142.47;;;35.80;19.78
30730;BME280;17476;48.458;7.928;2022-08-11T09:28:27;100143.00;;;36.33;19.44
30730;BME280;17476;48.458;7.928;2022-08-11T09:30:56;100140.41;;;36.78;19.43
30730;BME280;17476;48.458;7.928;2022-08-11T09:33:23;100137.66;;;36.87;18.79
30730;BME280;17476;48.458;7.928;2022-08-11T09:35:51;100132.03;;;37.16;18.93
30730;BME280;17476;48.458;7.928;2022-08-11T09:38:20;100127.91;;;37.43;18.71
30730;BME280;17476;48.458;7.928;2022-08-11T09:41:08;100129.97;;;37.59;18.39
30730;BME280;17476;48.458;7.928;2022-08-11T09:43:45;100128.44;;;37.82;18.49
30730;BME280;17476;48.458;7.928;2022-08-11T09:46:30;100124.31;;;38.01;17.91
30730;BME280;17476;48.458;7.928;2022-08-11T09:48:59;100129.31;;;38.11;18.14
30730;BME280;17476;48.458;7.928;2022-08-11T09:51:31;100114.72;;;38.19;17.79
30730;BME280;17476;48.458;7.928;2022-08-11T09:54:02;100129.41;;;38.27;17.37
30730;BME280;17476;48.458;7.928;2022-08-11T09:56:32;100125.41;;;38.24;17.55
30730;BME280;17476;48.458;7.928;2022-08-11T09:59:20;100114.72;;;38.07;17.34
30730;BME280;17476;48.458;7.928;2022-08-11T10:01:51;100112.53;;;38.24;17.16
30730;BME280;17476;48.458;7.928;2022-08-11T10:04:37;100108.19;;;38.48;17.14
30730;BME280;17476;48.458;7.928;2022-08-11T10:07:05;100117.69;;;38.26;16.38
30730;BME280;17476;48.458;7.928;2022-08-11T10:09:56;100112.19;;;38.38;16.88
30730;BME280;17476;48.458;7.928;2022-08-11T10:12:26;100111.19;;;38.71;16.40
30730;BME280;17476;48.458;7.928;2022-08-11T10:15:06;100111.63;;;38.73;16.67
30730;BME280;17476;48.458;7.928;2022-08-11T10:17:56;100100.81;;;39.20;16.43
30730;BME280;17476;48.458;7.928;2022-08-11T10:20:41;100111.66;;;39.48;16.22
30730;BME280;17476;48.458;7.928;2022-08-11T10:23:11;100095.78;;;39.54;16.26
30730;BME280;17476;48.458;7.928;2022-08-11T10:25:57;100102.03;;;39.86;16.26
30730;BME280;17476;48.458;7.928;2022-08-11T10:28:41;100100.22;;;39.43;16.23
30730;BME280;17476;48.458;7.928;2022-08-11T10:31:08;100091.38;;;39.65;15.65
30730;BME280;17476;48.458;7.928;2022-08-11T10:33:53;100093.38;;;39.84;16.44
30730;BME280;17476;48.458;7.928;2022-08-11T10:36:27;100086.81;;;40.04;15.79
30730;BME280;17476;48.458;7.928;2022-08-11T10:38:55;100090.59;;;40.54;16.16
30730;BME280;17476;48.458;7.928;2022-08-11T10:41:21;100086.81;;;40.24;15.62
30730;BME280;17476;48.458;7.928;2022-08-11T10:44:08;100088.84;;;40.27;16.23
30730;BME280;17476;48.458;7.928;2022-08-11T10:46:35;100088.56;;;39.97;15.97
30730;BME280;17476;48.458;7.928;2022-08-11T10:49:22;100080.13;;;40.60;16.12
30730;BME280;17476;48.458;7.928;2022-08-11T10:51:49;100080.78;;;40.73;15.97
30730;BME280;17476;48.458;7.928;2022-08-11T10:54:35;100073.53;;;40.06;15.06
30730;BME280;17476;48.458;7.928;2022-08-11T10:57:22;100074.81;;;40.48;15.55
30730;BME280;17476;48.458;7.928;2022-08-11T11:00:09;100077.41;;;40.60;14.85
30730;BME280;17476;48.458;7.928;2022-08-11T11:02:44;100065.38;;;40.87;15.18
30730;BME280;17476;48.458;7.928;2022-08-11T11:05:23;100071.72;;;40.91;14.94
30730;BME280;17476;48.458;7.928;2022-08-11T11:08:08;100062.53;;;41.26;15.53
30730;BME280;17476;48.458;7.928;2022-08-11T11:10:55;100061.50;;;41.61;14.86
30730;BME280;17476;48.458;7.928;2022-08-11T11:13:23;100058.91;;;41.98;14.88
30730;BME280;17476;48.458;7.928;2022-08-11T11:16:09;100059.41;;;41.77;14.68
30730;BME280;17476;48.458;7.928;2022-08-11T11:19:11;100053.50;;;41.75;14.90
30730;BME280;17476;48.458;7.928;2022-08-11T11:21:40;100055.56;;;41.82;14.77
30730;BME280;17476;48.458;7.928;2022-08-11T11:27:37;100052.25;;;41.99;14.14
30730;BME280;17476;48.458;7.928;2022-08-11T11:30:10;100055.34;;;41.67;13.54
30730;BME280;17476;48.458;7.928;2022-08-11T11:33:15;100047.69;;;41.54;13.91
30730;BME280;17476;48.458;7.928;2022-08-11T11:36:27;100045.16;;;41.71;13.96
30730;BME280;17476;48.458;7.928;2022-08-11T11:38:58;100037.38;;;42.04;14.13
30730;BME280;17476;48.458;7.928;2022-08-11T11:41:26;100030.06;;;41.85;14.38
30730;BME280;17476;48.458;7.928;2022-08-11T11:43:55;100034.88;;;41.38;14.29
30730;BME280;17476;48.458;7.928;2022-08-11T11:46:26;100028.91;;;41.59;14.80
30730;BME280;17476;48.458;7.928;2022-08-11T11:48:54;100035.38;;;42.31;14.64
30730;BME280;17476;48.458;7.928;2022-08-11T11:51:22;100020.69;;;42.94;14.30
30730;BME280;17476;48.458;7.928;2022-08-11T11:53:48;100026.47;;;43.22;13.39
30730;BME280;17476;48.458;7.928;2022-08-11T11:56:16;100021.09;;;43.40;13.89
30730;BME280;17476;48.458;7.928;2022-08-11T11:58:43;100012.13;;;43.54;13.78
30730;BME280;17476;48.458;7.928;2022-08-11T12:01:28;100016.50;;;43.03;13.23
30730;BME280;17476;48.458;7.928;2022-08-11T12:03:56;100014.19;;;43.09;13.57
30730;BME280;17476;48.458;7.928;2022-08-11T12:06:24;100009.72;;;43.49;13.62
30730;BME280;17476;48.458;7.928;2022-08-11T12:08:55;100008.00;;;43.92;13.20
30730;BME280;17476;48.458;7.928;2022-08-11T12:11:25;100004.59;;;44.24;13.35
30730;BME280;17476;48.458;7.928;2022-08-11T12:14:10;99993.53;;;44.17;12.53
30730;BME280;17476;48.458;7.928;2022-08-11T12:16:40;100005.84;;;43.57;13.26
30730;BME280;17476;48.458;7.928;2022-08-11T12:19:12;100005.09;;;43.67;13.45
30730;BME280;17476;48.458;7.928;2022-08-11T12:21:40;99996.63;;;43.97;13.44
30730;BME280;17476;48.458;7.928;2022-08-11T12:24:30;99993.91;;;44.15;12.58
30730;BME280;17476;48.458;7.928;2022-08-11T12:27:15;99992.78;;;44.20;13.34
30730;BME280;17476;48.458;7.928;2022-08-11T12:29:51;99987.97;;;44.09;13.39
30730;BME280;17476;48.458;7.928;2022-08-11T12:32:21;99982.53;;;44.27;12.82
30730;BME280;17476;48.458;7.928;2022-08-11T12:34:48;99977.03;;;44.42;13.26
30730;BME280;17476;48.458;7.928;2022-08-11T12:37:25;99984.81;;;44.04;13.47
30730;BME280;17476;48.458;7.928;2022-08-11T12:39:59;99980.13;;;44.15;12.94
30730;BME280;17476;48.458;7.928;2022-08-11T12:42:46;99968.78;;;44.42;13.04
30730;BME280;17476;48.458;7.928;2022-08-11T12:45:31;99961.31;;;44.81;12.92
30730;BME280;17476;48.458;7.928;2022-08-11T12:48:25;99972.75;;;44.62;13.07
30730;BME280;17476;48.458;7.928;2022-08-11T12:51:17;99964.06;;;44.53;12.87
30730;BME280;17476;48.458;7.928;2022-08-11T12:54:16;99967.22;;;44.83;12.17
30730;BME280;17476;48.458;7.928;2022-08-11T12:56:47;99951.84;;;44.89;12.57
30730;BME280;17476;48.458;7.928;2022-08-11T12:59:34;99952.63;;;44.90;12.40
30730;BME280;17476;48.458;7.928;2022-08-11T13:02:21;99955.78;;;44.78;12.46
30730;BME280;17476;48.458;7.928;2022-08-11T13:05:10;99952.66;;;44.65;13.22
30730;BME280;17476;48.458;7.928;2022-08-11T13:07:37;99950.28;;;44.81;12.59
30730;BME280;17476;48.458;7.928;2022-08-11T13:10:07;99939.63;;;44.87;13.15
30730;BME280;17476;48.458;7.928;2022-08-11T13:12:34;99947.53;;;44.99;12.74
30730;BME280;17476;48.458;7.928;2022-08-11T13:15:21;99936.84;;;45.26;12.54
30730;BME280;17476;48.458;7.928;2022-08-11T13:17:50;99936.50;;;44.99;12.31
30730;BME280;17476;48.458;7.928;2022-08-11T13:20:19;99932.13;;;44.87;12.49
30730;BME280;17476;48.458;7.928;2022-08-11T13:22:53;99932.94;;;44.66;12.53
30730;BME280;17476;48.458;7.928;2022-08-11T13:25:26;99929.38;;;44.62;12.30
30730;BME280;17476;48.458;7.928;2022-08-11T13:27:56;99923.44;;;44.50;12.61
30730;BME280;17476;48.458;7.928;2022-08-11T13:30:25;99931.31;;;44.26;12.47
30730;BME280;17476;48.458;7.928;2022-08-11T13:33:11;99934.78;;;44.09;12.28
30730;BME280;17476;48.458;7.928;2022-08-11T13:35:38;99918.25;;;44.09;12.95
30730;BME280;17476;48.458;7.928;2022-08-11T13:38:05;99921.00;;;44.05;12.85
30730;BME280;17476;48.458;7.928;2022-08-11T13:40:32;99908.41;;;44.01;12.93
30730;BME280;17476;48.458;7.928;2022-08-11T13:42:59;99915.44;;;43.88;12.85
30730;BME280;17476;48.458;7.928;2022-08-11T13:45:25;99909.19;;;43.98;12.90
30730;BME280;17476;48.458;7.928;2022-08-11T13:47:55;99911.97;;;44.16;12.94
30730;BME280;17476;48.458;7.928;2022-08-11T13:50:24;99906.78;;;43.96;12.24
30730;BME280;17476;48.458;7.928;2022-08-11T13:53:11;99914.88;;;43.46;13.09
30730;BME280;17476;48.458;7.928;2022-08-11T13:55:41;99901.81;;;43.32;12.74
30730;BME280;17476;48.458;7.928;2022-08-11T13:58:09;99907.16;;;43.04;13.20
30730;BME280;17476;48.458;7.928;2022-08-11T14:00:37;99901.72;;;43.18;13.01
30730;BME280;17476;48.458;7.928;2022-08-11T14:03:08;99897.56;;;42.87;12.52
30730;BME280;17476;48.458;7.928;2022-08-11T14:05:45;99888.50;;;43.38;12.80
30730;BME280;17476;48.458;7.928;2022-08-11T14:08:18;99891.47;;;43.12;12.81
30730;BME280;17476;48.458;7.928;2022-08-11T14:10:48;99891.31;;;42.42;13.45
30730;BME280;17476;48.458;7.928;2022-08-11T14:13:42;99890.94;;;42.47;13.35
30730;BME280;17476;48.458;7.928;2022-08-11T14:16:19;99892.13;;;42.46;13.11
30730;BME280;17476;48.458;7.928;2022-08-11T14:18:48;99884.66;;;42.47;13.84
30730;BME280;17476;48.458;7.928;2022-08-11T14:21:17;99879.09;;;42.36;12.21
30730;BME280;17476;48.458;7.928;2022-08-11T14:24:03;99878.44;;;41.42;13.43
30730;BME280;17476;48.458;7.928;2022-08-11T14:26:30;99879.00;;;41.28;13.37
30730;BME280;17476;48.458;7.928;2022-08-11T14:29:12;99881.25;;;41.19;13.90
30730;BME280;17476;48.458;7.928;2022-08-11T14:31:57;99876.06;;;41.14;13.94
30730;BME280;17476;48.458;7.928;2022-08-11T14:34:26;99879.25;;;40.67;13.75
30730;BME280;17476;48.458;7.928;2022-08-11T14:37:01;99874.22;;;40.03;14.00
30730;BME280;17476;48.458;7.928;2022-08-11T14:39:34;99866.09;;;39.68;14.74
30730;BME280;17476;48.458;7.928;2022-08-11T14:42:05;99857.88;;;39.29;15.14
30730;BME280;17476;48.458;7.928;2022-08-11T14:45:16;99857.56;;;38.99;15.31
30730;BME280;17476;48.458;7.928;2022-08-11T14:48:04;99856.81;;;38.83;15.34
30730;BME280;17476;48.458;7.928;2022-08-11T14:50:34;99853.44;;;38.74;16.02
30730;BME280;17476;48.458;7.928;2022-08-11T14:53:04;99858.03;;;38.86;15.49
30730;BME280;17476;48.458;7.928;2022-08-11T14:55:40;99861.34;;;38.16;16.09
30730;BME280;17476;48.458;7.928;2022-08-11T14:58:28;99861.09;;;37.93;16.36
30730;BME280;17476;48.458;7.928;2022-08-11T15:00:57;99862.19;;;37.48;16.67
30730;BME280;17476;48.458;7.928;2022-08-11T15:03:25;99853.22;;;37.23;17.15
30730;BME280;17476;48.458;7.928;2022-08-11T15:05:57;99855.53;;;36.97;16.85
30730;BME280;17476;48.458;7.928;2022-08-11T15:08:30;99855.53;;;36.72;17.34
30730;BME280;17476;48.458;7.928;2022-08-11T15:11:18;99845.16;;;36.41;17.37
30730;BME280;17476;48.458;7.928;2022-08-11T15:14:06;99844.13;;;36.33;17.48
30730;BME280;17476;48.458;7.928;2022-08-11T15:16:35;99850.03;;;36.02;17.44
30730;BME280;17476;48.458;7.928;2022-08-11T15:19:20;99843.91;;;35.72;17.66
30730;BME280;17476;48.458;7.928;2022-08-11T15:21:49;99834.31;;;35.54;17.72
30730;BME280;17476;48.458;7.928;2022-08-11T15:24:34;99846.34;;;35.23;18.04
30730;BME280;17476;48.458;7.928;2022-08-11T15:27:04;99838.22;;;34.94;18.29
30730;BME280;17476;48.458;7.928;2022-08-11T15:29:51;99840.84;;;34.73;18.44
30730;BME280;17476;48.458;7.928;2022-08-11T15:32:38;99840.72;;;34.69;18.77
30730;BME280;17476;48.458;7.928;2022-08-11T15:35:25;99840.16;;;34.55;18.86
30730;BME280;17476;48.458;7.928;2022-08-11T15:38:11;99832.94;;;34.59;19.23
30730;BME280;17476;48.458;7.928;2022-08-11T15:40:39;99834.38;;;34.57;19.18
30730;BME280;17476;48.458;7.928;2022-08-11T15:43:32;99821.78;;;34.52;18.88
30730;BME280;17476;48.458;7.928;2022-08-11T15:46:41;99830.91;;;34.39;19.23
30730;BME280;17476;48.458;7.928;2022-08-11T15:49:33;99835.63;;;34.12;19.25
30730;BME280;17476;48.458;7.928;2022-08-11T15:52:09;99827.03;;;33.93;19.33
30730;BME280;17476;48.458;7.928;2022-08-11T15:54:40;99826.56;;;33.91;19.54
30730;BME280;17476;48.458;7.928;2022-08-11T15:57:09;99828.28;;;33.87;19.76
30730;BME280;17476;48.458;7.928;2022-08-11T15:59:56;99829.72;;;33.84;19.65
30730;BME280;17476;48.458;7.928;2022-08-11T16:02:43;99827.34;;;33.65;19.91
30730;BME280;17476;48.458;7.928;2022-08-11T16:05:22;99819.06;;;33.62;20.07
30730;BME280;17476;48.458;7.928;2022-08-11T16:07:51;99822.09;;;33.69;20.05
30730;BME280;17476;48.458;7.928;2022-08-11T16:10:19;99818.09;;;33.66;20.22
30730;BME280;17476;48.458;7.928;2022-08-11T16:12:59;99815.53;;;33.53;20.14
30730;BME280;17476;48.458;7.928;2022-08-11T16:15:50;99816.66;;;33.34;20.28
30730;BME280;17476;48.458;7.928;2022-08-11T16:21:25;99818.72;;;33.20;20.23
30730;BME280;17476;48.458;7.928;2022-08-11T16:23:53;99808.97;;;33.19;20.39
30730;BME280;17476;48.458;7.928;2022-08-11T16:26:22;99818.69;;;33.03;20.30
30730;BME280;17476;48.458;7.928;2022-08-11T16:28:56;99823.91;;;32.91;20.56
30730;BME280;17476;48.458;7.928;2022-08-11T16:31:23;99812.13;;;32.86;20.31
30730;BME280;17476;48.458;7.928;2022-08-11T16:33:51;99807.59;;;32.82;20.37
30730;BME280;17476;48.458;7.928;2022-08-11T16:36:20;99809.34;;;32.78;20.65
30730;BME280;17476;48.458;7.928;2022-08-11T16:39:09;99807.38;;;32.61;20.77
30730;BME280;17476;48.458;7.928;2022-08-11T16:41:38;99805.44;;;32.53;20.98
30730;BME280;17476;48.458;7.928;2022-08-11T16:44:24;99807.50;;;32.47;20.32
30730;BME280;17476;48.458;7.928;2022-08-11T16:47:14;99817.25;;;32.26;21.15
30730;BME280;17476;48.458;7.928;2022-08-11T16:49:52;99807.34;;;32.21;20.71
30730;BME280;17476;48.458;7.928;2022-08-11T16:52:22;99810.00;;;32.13;20.64
30730;BME280;17476;48.458;7.928;2022-08-11T16:54:48;99814.91;;;32.11;21.27
30730;BME280;17476;48.458;7.928;2022-08-11T16:57:25;99811.72;;;32.09;21.16
30730;BME280;17476;48.458;7.928;2022-08-11T17:00:15;99811.25;;;32.06;21.43
30730;BME280;17476;48.458;7.928;2022-08-11T17:02:48;99808.53;;;32.06;20.86
30730;BME280;17476;48.458;7.928;2022-08-11T17:05:34;99808.06;;;32.04;21.22
30730;BME280;17476;48.458;7.928;2022-08-11T17:08:32;99813.22;;;31.92;21.49
30730;BME280;17476;48.458;7.928;2022-08-11T17:11:19;99813.16;;;31.84;20.78
30730;BME280;17476;48.458;7.928;2022-08-11T17:14:14;99810.75;;;31.82;21.41